Wichita Mid Continent Airport
KICT : now visible

Airfield :











YOU CAN JOIN US ON...

 
LOGIN :

Register | Disclaimer

   EN    FR    IT 

 









Legend :    VFR   Marginal VFR   IFR   Intensive IFR   Very Intensive IFR
Visi :
Ceiling :
>= 8 km
>= 3000ft
5 to 8 km
1000 to 3000 ft
1500m to 5 km
500 to 1000 ft
800 to 1500m
200 to 500 ft
< 800m
< 200 ft
Symbols :   Thunderstorms  Fog  Heavy snow  Heavy precipitations  Wind > 20 kt






- Airport Elevation : 1333 ft
- IATA code : ICT


KICT - Wichita Mid Continent

CURRENT METAR :
  • 130453Z 19004KT 10SM FEW220 03/01 A2998 RMK AO2 SLP158 T00330006

EXPIRED METARs :
  • 130353Z 18005KT 10SM FEW150 SCT180 BKN220 06/02 A2999 RMK AO2 SLP160 T00610017
  • 130253Z 20004KT 10SM FEW120 SCT150 BKN180 BKN220 07/02 A3001 RMK AO2 SLP165 T00670017 53002

TAF KICT
Valid from the 13 at 06:00 until the 14 at 06:00 UTC


130521Z 1306/1406 VRB04KT P6SM SCT110 SCT180
FM131700 23007KT P6SM SCT100
FM132000 28009KT P6SM FEW150
FM140500 31010KT P6SM SCT250



MET'MAP, your aeronautical weather chart ! - Copyright ORBIFLY December 2007 - Disclaimer

ORBIFLY MET'MAP TEAM :

Programming & Development : Alexandra Zaïnal
Concept & original design : Baudouin d'Aumeries
Assistance for programming : Marc-Olivier Méhu
Technical & hardware support : Manuel Goepfert

Contact : metmap@orbifly.com




SOURCES & CREDITS :

   NOAA       Earth
Advisory